KJWN

John C Tune Airport

Nashville, Tennessee, USA
METAR KJWN 220035Z AUTO 34008KT 10SM OVC008 09/08 A3036 RMK A01
Observed Flight Rules
Feb-22 @ 00:35 UTC (4 hours ago) Instrument Flight Rules
Wind Visibility Clouds
340° at 8 knots 10 miles
  • Overcast at 800' AGL
Temperatures Readings
Current 9°C / 48°F
Dewpoint 8°C / 46°F
Humidity 94%
Altimeter 30.36" Hg
Pressure 1028 hPa
Elevation 151
METAR KJWN 220035Z AUTO 34008KT 10SM OVC008 09/08 A3036 RMK A01
Observed Flight Rules
Feb-22 @ 00:35 UTC
(4 hours ago)
IFR
Wind Visibility
340° at 8 knots 10 miles
Clouds
  • Overcast at 800' AGL
Temperature Dewpoint
9°C / 48°F 8°C / 46°F
Humidity Altimeter Pressure
94% 30.36" Hg 1028 hPa